sensor_id;sensor_type;location;lat;lon;timestamp;temperature;humidity
30328;DHT22;17133;52.418;13.398;2022-09-09T00:02:22;14.90;99.90
30328;DHT22;17133;52.418;13.398;2022-09-09T00:10:14;14.90;99.90
30328;DHT22;17133;52.418;13.398;2022-09-09T00:15:32;14.80;99.90
30328;DHT22;17133;52.418;13.398;2022-09-09T00:18:23;14.80;99.90
30328;DHT22;17133;52.418;13.398;2022-09-09T00:23:39;14.80;99.90
30328;DHT22;17133;52.418;13.398;2022-09-09T00:26:21;14.70;99.90
30328;DHT22;17133;52.418;13.398;2022-09-09T00:28:50;14.80;99.90
30328;DHT22;17133;52.418;13.398;2022-09-09T00:31:26;14.70;99.90
30328;DHT22;17133;52.418;13.398;2022-09-09T00:33:53;14.70;99.90
30328;DHT22;17133;52.418;13.398;2022-09-09T00:36:22;14.70;99.90
30328;DHT22;17133;52.418;13.398;2022-09-09T00:38:52;14.70;99.90
30328;DHT22;17133;52.418;13.398;2022-09-09T00:50:15;14.60;99.90
30328;DHT22;17133;52.418;13.398;2022-09-09T00:55:48;14.50;99.90
30328;DHT22;17133;52.418;13.398;2022-09-09T00:58:14;14.50;99.90
30328;DHT22;17133;52.418;13.398;2022-09-09T01:00:41;14.50;99.90
30328;DHT22;17133;52.418;13.398;2022-09-09T01:20:17;14.30;99.90
30328;DHT22;17133;52.418;13.398;2022-09-09T01:26:12;14.30;99.90
30328;DHT22;17133;52.418;13.398;2022-09-09T01:28:40;14.30;99.90
30328;DHT22;17133;52.418;13.398;2022-09-09T01:31:09;14.30;99.90
30328;DHT22;17133;52.418;13.398;2022-09-09T01:33:36;14.30;99.90
30328;DHT22;17133;52.418;13.398;2022-09-09T01:36:03;14.20;99.90
30328;DHT22;17133;52.418;13.398;2022-09-09T01:38:31;14.20;99.90
30328;DHT22;17133;52.418;13.398;2022-09-09T01:40:58;14.20;99.90
30328;DHT22;17133;52.418;13.398;2022-09-09T01:43:24;14.20;99.90
30328;DHT22;17133;52.418;13.398;2022-09-09T01:45:53;14.10;99.90
30328;DHT22;17133;52.418;13.398;2022-09-09T01:48:21;13.30;99.90
30328;DHT22;17133;52.418;13.398;2022-09-09T01:50:48;14.10;99.90
30328;DHT22;17133;52.418;13.398;2022-09-09T01:53:15;14.10;99.90
30328;DHT22;17133;52.418;13.398;2022-09-09T01:56:32;14.10;99.90
30328;DHT22;17133;52.418;13.398;2022-09-09T01:58:59;14.10;99.90
30328;DHT22;17133;52.418;13.398;2022-09-09T02:04:14;14.10;99.90
30328;DHT22;17133;52.418;13.398;2022-09-09T02:06:45;14.00;99.90
30328;DHT22;17133;52.418;13.398;2022-09-09T02:09:14;14.00;99.90
30328;DHT22;17133;52.418;13.398;2022-09-09T02:11:42;14.00;99.90
30328;DHT22;17133;52.418;13.398;2022-09-09T02:14:12;14.00;99.90
30328;DHT22;17133;52.418;13.398;2022-09-09T02:16:44;14.00;99.90
30328;DHT22;17133;52.418;13.398;2022-09-09T02:19:19;13.90;99.90
30328;DHT22;17133;52.418;13.398;2022-09-09T02:21:52;14.00;99.90
30328;DHT22;17133;52.418;13.398;2022-09-09T02:24:19;13.90;99.90
30328;DHT22;17133;52.418;13.398;2022-09-09T02:26:46;13.90;99.90
30328;DHT22;17133;52.418;13.398;2022-09-09T02:29:29;13.90;99.90
30328;DHT22;17133;52.418;13.398;2022-09-09T02:31:59;13.90;99.90
30328;DHT22;17133;52.418;13.398;2022-09-09T02:34:27;13.80;99.90
30328;DHT22;17133;52.418;13.398;2022-09-09T02:36:55;13.90;99.90
30328;DHT22;17133;52.418;13.398;2022-09-09T02:39:22;13.90;99.90
30328;DHT22;17133;52.418;13.398;2022-09-09T02:41:48;13.90;99.90
30328;DHT22;17133;52.418;13.398;2022-09-09T02:44:16;13.90;99.90
30328;DHT22;17133;52.418;13.398;2022-09-09T02:52:15;13.90;99.90
30328;DHT22;17133;52.418;13.398;2022-09-09T02:54:44;13.90;99.90
30328;DHT22;17133;52.418;13.398;2022-09-09T02:57:23;13.90;99.90
30328;DHT22;17133;52.418;13.398;2022-09-09T02:59:51;13.80;99.90
30328;DHT22;17133;52.418;13.398;2022-09-09T03:02:18;13.90;99.90
30328;DHT22;17133;52.418;13.398;2022-09-09T03:04:44;13.80;99.90
30328;DHT22;17133;52.418;13.398;2022-09-09T03:07:10;13.80;99.90
30328;DHT22;17133;52.418;13.398;2022-09-09T03:09:36;13.90;99.90
30328;DHT22;17133;52.418;13.398;2022-09-09T03:12:02;13.80;99.90
30328;DHT22;17133;52.418;13.398;2022-09-09T03:14:29;12.80;99.90
30328;DHT22;17133;52.418;13.398;2022-09-09T03:16:56;13.80;99.90
30328;DHT22;17133;52.418;13.398;2022-09-09T03:19:23;13.90;99.90
30328;DHT22;17133;52.418;13.398;2022-09-09T03:21:49;13.80;99.90
30328;DHT22;17133;52.418;13.398;2022-09-09T03:24:14;13.90;99.90
30328;DHT22;17133;52.418;13.398;2022-09-09T03:26:41;13.80;99.90
30328;DHT22;17133;52.418;13.398;2022-09-09T03:29:10;13.90;99.90
30328;DHT22;17133;52.418;13.398;2022-09-09T03:31:38;13.80;99.90
30328;DHT22;17133;52.418;13.398;2022-09-09T03:34:03;13.80;99.90
30328;DHT22;17133;52.418;13.398;2022-09-09T03:36:29;13.80;99.90
30328;DHT22;17133;52.418;13.398;2022-09-09T03:38:55;13.80;99.90
30328;DHT22;17133;52.418;13.398;2022-09-09T03:41:22;13.80;99.90
30328;DHT22;17133;52.418;13.398;2022-09-09T03:43:53;13.80;99.90
30328;DHT22;17133;52.418;13.398;2022-09-09T03:46:20;13.80;99.90
30328;DHT22;17133;52.418;13.398;2022-09-09T03:48:46;13.80;99.90
30328;DHT22;17133;52.418;13.398;2022-09-09T03:51:12;13.80;99.90
30328;DHT22;17133;52.418;13.398;2022-09-09T03:53:38;13.70;99.90
30328;DHT22;17133;52.418;13.398;2022-09-09T03:56:05;13.70;99.90
30328;DHT22;17133;52.418;13.398;2022-09-09T03:58:32;13.70;99.90
30328;DHT22;17133;52.418;13.398;2022-09-09T04:01:09;13.70;99.90
30328;DHT22;17133;52.418;13.398;2022-09-09T04:03:35;13.70;99.90
30328;DHT22;17133;52.418;13.398;2022-09-09T04:06:03;13.70;99.90
30328;DHT22;17133;52.418;13.398;2022-09-09T04:08:29;13.60;99.90
30328;DHT22;17133;52.418;13.398;2022-09-09T04:10:58;13.60;99.90
30328;DHT22;17133;52.418;13.398;2022-09-09T04:13:24;13.60;99.90
30328;DHT22;17133;52.418;13.398;2022-09-09T04:15:55;13.60;99.90
30328;DHT22;17133;52.418;13.398;2022-09-09T04:18:21;13.60;99.90
30328;DHT22;17133;52.418;13.398;2022-09-09T04:20:51;13.50;99.90
30328;DHT22;17133;52.418;13.398;2022-09-09T04:23:20;13.60;99.90
30328;DHT22;17133;52.418;13.398;2022-09-09T04:25:50;13.50;99.90
30328;DHT22;17133;52.418;13.398;2022-09-09T04:28:18;13.50;99.90
30328;DHT22;17133;52.418;13.398;2022-09-09T04:30:45;13.50;99.90
30328;DHT22;17133;52.418;13.398;2022-09-09T04:33:11;13.50;99.90
30328;DHT22;17133;52.418;13.398;2022-09-09T04:35:37;13.50;99.90
30328;DHT22;17133;52.418;13.398;2022-09-09T04:38:04;13.50;99.90
30328;DHT22;17133;52.418;13.398;2022-09-09T04:40:31;13.30;99.90
30328;DHT22;17133;52.418;13.398;2022-09-09T04:43:01;13.50;99.90
30328;DHT22;17133;52.418;13.398;2022-09-09T04:45:28;13.10;99.90
30328;DHT22;17133;52.418;13.398;2022-09-09T04:47:54;13.50;99.90
30328;DHT22;17133;52.418;13.398;2022-09-09T04:50:19;13.50;99.90
30328;DHT22;17133;52.418;13.398;2022-09-09T04:52:45;13.50;99.90
30328;DHT22;17133;52.418;13.398;2022-09-09T04:55:11;13.60;99.90
30328;DHT22;17133;52.418;13.398;2022-09-09T04:57:38;13.60;99.90
30328;DHT22;17133;52.418;13.398;2022-09-09T05:00:04;13.60;99.90
30328;DHT22;17133;52.418;13.398;2022-09-09T05:02:30;13.60;99.90
30328;DHT22;17133;52.418;13.398;2022-09-09T05:04:57;13.60;99.90
30328;DHT22;17133;52.418;13.398;2022-09-09T05:07:23;13.60;99.90
30328;DHT22;17133;52.418;13.398;2022-09-09T05:09:49;13.60;99.90
30328;DHT22;17133;52.418;13.398;2022-09-09T05:12:15;13.70;99.90
30328;DHT22;17133;52.418;13.398;2022-09-09T05:14:42;13.70;99.90
30328;DHT22;17133;52.418;13.398;2022-09-09T05:17:08;13.70;99.90
30328;DHT22;17133;52.418;13.398;2022-09-09T05:19:33;13.70;99.90
30328;DHT22;17133;52.418;13.398;2022-09-09T05:21:59;13.80;99.90
30328;DHT22;17133;52.418;13.398;2022-09-09T05:24:26;13.80;99.90
30328;DHT22;17133;52.418;13.398;2022-09-09T05:26:52;13.80;99.90
30328;DHT22;17133;52.418;13.398;2022-09-09T05:29:17;13.80;99.90
30328;DHT22;17133;52.418;13.398;2022-09-09T05:31:46;13.90;99.90
30328;DHT22;17133;52.418;13.398;2022-09-09T05:34:12;13.90;99.90
30328;DHT22;17133;52.418;13.398;2022-09-09T05:36:38;13.90;99.90
30328;DHT22;17133;52.418;13.398;2022-09-09T05:39:03;13.90;99.90
30328;DHT22;17133;52.418;13.398;2022-09-09T05:41:29;14.00;99.90
30328;DHT22;17133;52.418;13.398;2022-09-09T05:43:55;14.00;99.90
30328;DHT22;17133;52.418;13.398;2022-09-09T05:46:23;14.00;99.90
30328;DHT22;17133;52.418;13.398;2022-09-09T05:48:50;14.10;99.90
30328;DHT22;17133;52.418;13.398;2022-09-09T05:51:22;14.10;99.90
30328;DHT22;17133;52.418;13.398;2022-09-09T05:53:50;14.10;99.90
30328;DHT22;17133;52.418;13.398;2022-09-09T05:56:21;14.20;99.90
30328;DHT22;17133;52.418;13.398;2022-09-09T05:58:50;14.20;99.90
30328;DHT22;17133;52.418;13.398;2022-09-09T06:01:31;14.30;99.90
30328;DHT22;17133;52.418;13.398;2022-09-09T06:03:57;14.30;99.90
30328;DHT22;17133;52.418;13.398;2022-09-09T06:06:25;14.30;99.90
30328;DHT22;17133;52.418;13.398;2022-09-09T06:08:53;14.30;99.90
30328;DHT22;17133;52.418;13.398;2022-09-09T06:11:21;14.40;99.90
30328;DHT22;17133;52.418;13.398;2022-09-09T06:13:47;14.40;99.90
30328;DHT22;17133;52.418;13.398;2022-09-09T06:16:16;14.50;99.90
30328;DHT22;17133;52.418;13.398;2022-09-09T06:18:42;14.60;99.90
30328;DHT22;17133;52.418;13.398;2022-09-09T06:21:15;14.90;99.90
30328;DHT22;17133;52.418;13.398;2022-09-09T06:23:41;15.20;99.90
30328;DHT22;17133;52.418;13.398;2022-09-09T06:26:11;15.50;99.90
30328;DHT22;17133;52.418;13.398;2022-09-09T06:28:37;15.80;99.90
30328;DHT22;17133;52.418;13.398;2022-09-09T06:31:08;16.90;99.90
30328;DHT22;17133;52.418;13.398;2022-09-09T06:33:39;16.20;99.90
30328;DHT22;17133;52.418;13.398;2022-09-09T06:36:11;16.20;99.90
30328;DHT22;17133;52.418;13.398;2022-09-09T06:38:37;16.30;99.90
30328;DHT22;17133;52.418;13.398;2022-09-09T06:41:03;16.40;99.90
30328;DHT22;17133;52.418;13.398;2022-09-09T06:43:29;16.50;99.90
30328;DHT22;17133;52.418;13.398;2022-09-09T06:48:33;16.80;99.90
30328;DHT22;17133;52.418;13.398;2022-09-09T06:53:39;17.50;99.90
30328;DHT22;17133;52.418;13.398;2022-09-09T06:58:40;18.10;99.90
30328;DHT22;17133;52.418;13.398;2022-09-09T07:01:11;18.30;99.90
30328;DHT22;17133;52.418;13.398;2022-09-09T07:03:41;18.50;99.90
30328;DHT22;17133;52.418;13.398;2022-09-09T07:06:11;18.90;99.90
30328;DHT22;17133;52.418;13.398;2022-09-09T07:08:38;19.20;99.90
30328;DHT22;17133;52.418;13.398;2022-09-09T07:11:05;19.50;99.90
30328;DHT22;17133;52.418;13.398;2022-09-09T07:13:31;19.70;99.90
30328;DHT22;17133;52.418;13.398;2022-09-09T07:16:09;19.80;99.90
30328;DHT22;17133;52.418;13.398;2022-09-09T07:18:35;19.90;99.90
30328;DHT22;17133;52.418;13.398;2022-09-09T07:21:02;19.10;99.90
30328;DHT22;17133;52.418;13.398;2022-09-09T07:23:28;20.10;99.90
30328;DHT22;17133;52.418;13.398;2022-09-09T07:25:55;20.40;99.90
30328;DHT22;17133;52.418;13.398;2022-09-09T07:28:22;20.50;99.90
30328;DHT22;17133;52.418;13.398;2022-09-09T07:30:59;20.60;99.90
30328;DHT22;17133;52.418;13.398;2022-09-09T07:33:27;20.70;99.90
30328;DHT22;17133;52.418;13.398;2022-09-09T07:35:54;20.90;99.90
30328;DHT22;17133;52.418;13.398;2022-09-09T07:38:20;21.20;99.90
30328;DHT22;17133;52.418;13.398;2022-09-09T07:40:46;21.20;99.90
30328;DHT22;17133;52.418;13.398;2022-09-09T07:43:12;21.50;99.90
30328;DHT22;17133;52.418;13.398;2022-09-09T08:00:18;22.30;99.90
30328;DHT22;17133;52.418;13.398;2022-09-09T08:02:45;22.50;99.90
30328;DHT22;17133;52.418;13.398;2022-09-09T08:05:12;22.50;99.90
30328;DHT22;17133;52.418;13.398;2022-09-09T08:07:38;22.40;99.90
30328;DHT22;17133;52.418;13.398;2022-09-09T08:10:04;22.20;99.90
30328;DHT22;17133;52.418;13.398;2022-09-09T08:12:30;22.10;99.90
30328;DHT22;17133;52.418;13.398;2022-09-09T08:14:55;22.10;99.90
30328;DHT22;17133;52.418;13.398;2022-09-09T08:17:21;22.00;99.90
30328;DHT22;17133;52.418;13.398;2022-09-09T08:19:46;22.00;99.90
30328;DHT22;17133;52.418;13.398;2022-09-09T08:22:12;22.00;99.90
30328;DHT22;17133;52.418;13.398;2022-09-09T08:24:38;21.90;99.90
30328;DHT22;17133;52.418;13.398;2022-09-09T08:27:03;21.70;99.90
30328;DHT22;17133;52.418;13.398;2022-09-09T08:29:29;21.60;99.90
30328;DHT22;17133;52.418;13.398;2022-09-09T08:31:56;21.40;99.90
30328;DHT22;17133;52.418;13.398;2022-09-09T08:34:23;21.20;99.90
30328;DHT22;17133;52.418;13.398;2022-09-09T08:36:50;21.20;99.90
30328;DHT22;17133;52.418;13.398;2022-09-09T08:39:18;21.00;99.90
30328;DHT22;17133;52.418;13.398;2022-09-09T08:47:21;20.60;99.90
30328;DHT22;17133;52.418;13.398;2022-09-09T08:52:41;20.50;99.90
30328;DHT22;17133;52.418;13.398;2022-09-09T08:57:53;20.40;99.90
30328;DHT22;17133;52.418;13.398;2022-09-09T09:00:20;20.40;99.90
30328;DHT22;17133;52.418;13.398;2022-09-09T09:05:29;20.60;99.90
30328;DHT22;17133;52.418;13.398;2022-09-09T09:10:56;20.70;99.90
30328;DHT22;17133;52.418;13.398;2022-09-09T09:13:49;20.70;99.90
30328;DHT22;17133;52.418;13.398;2022-09-09T09:16:22;20.80;99.90
30328;DHT22;17133;52.418;13.398;2022-09-09T09:18:49;20.90;99.90
30328;DHT22;17133;52.418;13.398;2022-09-09T09:21:33;21.00;99.90
30328;DHT22;17133;52.418;13.398;2022-09-09T09:24:00;20.90;99.90
30328;DHT22;17133;52.418;13.398;2022-09-09T09:26:34;20.50;99.90
30328;DHT22;17133;52.418;13.398;2022-09-09T09:29:08;21.00;99.90
30328;DHT22;17133;52.418;13.398;2022-09-09T09:31:35;21.00;99.90
30328;DHT22;17133;52.418;13.398;2022-09-09T09:34:00;21.00;99.90
30328;DHT22;17133;52.418;13.398;2022-09-09T09:36:39;21.00;99.90
30328;DHT22;17133;52.418;13.398;2022-09-09T09:39:05;21.10;99.90
30328;DHT22;17133;52.418;13.398;2022-09-09T09:41:38;21.00;99.90
30328;DHT22;17133;52.418;13.398;2022-09-09T09:44:05;21.00;99.90
30328;DHT22;17133;52.418;13.398;2022-09-09T09:46:31;21.00;99.90
30328;DHT22;17133;52.418;13.398;2022-09-09T09:48:58;21.00;99.90
30328;DHT22;17133;52.418;13.398;2022-09-09T09:51:25;21.10;99.90
30328;DHT22;17133;52.418;13.398;2022-09-09T09:53:51;21.20;99.90
30328;DHT22;17133;52.418;13.398;2022-09-09T09:56:26;21.10;99.90
30328;DHT22;17133;52.418;13.398;2022-09-09T09:58:54;21.20;99.90
30328;DHT22;17133;52.418;13.398;2022-09-09T10:01:25;21.20;99.90
30328;DHT22;17133;52.418;13.398;2022-09-09T10:03:54;21.30;99.90
30328;DHT22;17133;52.418;13.398;2022-09-09T10:06:34;21.40;99.90
30328;DHT22;17133;52.418;13.398;2022-09-09T10:09:01;21.50;99.90
30328;DHT22;17133;52.418;13.398;2022-09-09T10:14:20;21.90;99.90
30328;DHT22;17133;52.418;13.398;2022-09-09T10:16:53;22.00;99.90
30328;DHT22;17133;52.418;13.398;2022-09-09T10:19:31;22.10;99.90
30328;DHT22;17133;52.418;13.398;2022-09-09T10:27:42;22.30;99.90
30328;DHT22;17133;52.418;13.398;2022-09-09T10:30:20;22.40;99.90
30328;DHT22;17133;52.418;13.398;2022-09-09T10:32:49;22.20;99.90
30328;DHT22;17133;52.418;13.398;2022-09-09T10:35:28;22.50;99.90
30328;DHT22;17133;52.418;13.398;2022-09-09T10:49:27;22.60;99.90
30328;DHT22;17133;52.418;13.398;2022-09-09T10:52:14;22.90;99.90
30328;DHT22;17133;52.418;13.398;2022-09-09T10:57:37;23.60;99.90
30328;DHT22;17133;52.418;13.398;2022-09-09T14:23:55;22.80;99.90
30328;DHT22;17133;52.418;13.398;2022-09-09T14:33:43;22.70;99.90
30328;DHT22;17133;52.418;13.398;2022-09-09T14:38:37;22.70;99.90
30328;DHT22;17133;52.418;13.398;2022-09-09T14:41:09;22.60;99.90
30328;DHT22;17133;52.418;13.398;2022-09-09T14:43:36;22.60;99.90
30328;DHT22;17133;52.418;13.398;2022-09-09T14:46:10;22.50;99.90
30328;DHT22;17133;52.418;13.398;2022-09-09T14:48:36;22.40;99.90
30328;DHT22;17133;52.418;13.398;2022-09-09T14:53:35;22.30;99.90
30328;DHT22;17133;52.418;13.398;2022-09-09T14:56:12;22.20;99.90
30328;DHT22;17133;52.418;13.398;2022-09-09T14:58:39;22.00;99.90
30328;DHT22;17133;52.418;13.398;2022-09-09T15:01:10;21.90;99.90
30328;DHT22;17133;52.418;13.398;2022-09-09T15:03:40;21.90;99.90
30328;DHT22;17133;52.418;13.398;2022-09-09T15:06:07;21.80;99.90
30328;DHT22;17133;52.418;13.398;2022-09-09T15:08:37;21.80;99.90
30328;DHT22;17133;52.418;13.398;2022-09-09T15:11:04;21.70;99.90
30328;DHT22;17133;52.418;13.398;2022-09-09T15:13:30;21.60;99.90
30328;DHT22;17133;52.418;13.398;2022-09-09T15:15:56;21.70;99.90
30328;DHT22;17133;52.418;13.398;2022-09-09T15:18:28;21.60;99.90
30328;DHT22;17133;52.418;13.398;2022-09-09T15:20:54;21.60;99.90
30328;DHT22;17133;52.418;13.398;2022-09-09T15:23:20;21.60;99.90
30328;DHT22;17133;52.418;13.398;2022-09-09T15:25:55;21.60;99.90
30328;DHT22;17133;52.418;13.398;2022-09-09T15:28:22;21.60;99.90
30328;DHT22;17133;52.418;13.398;2022-09-09T15:30:49;21.60;99.90
30328;DHT22;17133;52.418;13.398;2022-09-09T15:33:15;21.50;99.90
30328;DHT22;17133;52.418;13.398;2022-09-09T15:35:41;21.50;99.90
30328;DHT22;17133;52.418;13.398;2022-09-09T15:38:06;21.50;99.90
30328;DHT22;17133;52.418;13.398;2022-09-09T15:40:32;21.50;99.90
30328;DHT22;17133;52.418;13.398;2022-09-09T15:42:58;21.50;99.90
30328;DHT22;17133;52.418;13.398;2022-09-09T15:45:24;21.60;99.90
30328;DHT22;17133;52.418;13.398;2022-09-09T15:47:49;21.60;99.90
30328;DHT22;17133;52.418;13.398;2022-09-09T15:50:15;21.60;99.90
30328;DHT22;17133;52.418;13.398;2022-09-09T15:52:41;21.60;99.90
30328;DHT22;17133;52.418;13.398;2022-09-09T15:55:07;21.70;99.90
30328;DHT22;17133;52.418;13.398;2022-09-09T15:57:35;21.70;99.90
30328;DHT22;17133;52.418;13.398;2022-09-09T16:00:03;21.70;99.90
30328;DHT22;17133;52.418;13.398;2022-09-09T16:02:29;21.70;99.90
30328;DHT22;17133;52.418;13.398;2022-09-09T16:04:56;21.60;99.90
30328;DHT22;17133;52.418;13.398;2022-09-09T16:07:22;21.70;99.90
30328;DHT22;17133;52.418;13.398;2022-09-09T16:09:48;21.70;99.90
30328;DHT22;17133;52.418;13.398;2022-09-09T16:12:17;21.70;99.90
30328;DHT22;17133;52.418;13.398;2022-09-09T16:14:42;21.70;99.90
30328;DHT22;17133;52.418;13.398;2022-09-09T16:17:08;21.70;99.90
30328;DHT22;17133;52.418;13.398;2022-09-09T16:19:34;21.70;99.90
30328;DHT22;17133;52.418;13.398;2022-09-09T16:22:00;21.70;99.90
30328;DHT22;17133;52.418;13.398;2022-09-09T16:24:26;21.70;99.90
30328;DHT22;17133;52.418;13.398;2022-09-09T16:26:53;21.70;99.90
30328;DHT22;17133;52.418;13.398;2022-09-09T16:29:20;21.60;99.90
30328;DHT22;17133;52.418;13.398;2022-09-09T16:31:49;21.60;99.90
30328;DHT22;17133;52.418;13.398;2022-09-09T16:34:16;21.50;99.90
30328;DHT22;17133;52.418;13.398;2022-09-09T16:36:43;21.40;99.90
30328;DHT22;17133;52.418;13.398;2022-09-09T16:39:13;21.40;99.90
30328;DHT22;17133;52.418;13.398;2022-09-09T16:41:40;21.30;99.90
30328;DHT22;17133;52.418;13.398;2022-09-09T16:44:08;21.30;99.90
30328;DHT22;17133;52.418;13.398;2022-09-09T16:46:36;21.20;99.90
30328;DHT22;17133;52.418;13.398;2022-09-09T16:49:03;21.10;99.90
30328;DHT22;17133;52.418;13.398;2022-09-09T16:51:35;21.00;99.90
30328;DHT22;17133;52.418;13.398;2022-09-09T16:54:03;21.00;99.90
30328;DHT22;17133;52.418;13.398;2022-09-09T16:56:31;21.00;99.90
30328;DHT22;17133;52.418;13.398;2022-09-09T16:59:04;20.90;99.90
30328;DHT22;17133;52.418;13.398;2022-09-09T17:01:32;20.80;99.90
30328;DHT22;17133;52.418;13.398;2022-09-09T17:04:03;20.70;99.90
30328;DHT22;17133;52.418;13.398;2022-09-09T17:06:31;20.70;99.90
30328;DHT22;17133;52.418;13.398;2022-09-09T17:11:27;20.60;99.90
30328;DHT22;17133;52.418;13.398;2022-09-09T17:13:54;20.50;99.90
30328;DHT22;17133;52.418;13.398;2022-09-09T17:16:22;20.50;99.90
30328;DHT22;17133;52.418;13.398;2022-09-09T17:18:51;20.40;99.90
30328;DHT22;17133;52.418;13.398;2022-09-09T17:21:22;20.40;99.90
30328;DHT22;17133;52.418;13.398;2022-09-09T17:23:49;20.20;99.90
30328;DHT22;17133;52.418;13.398;2022-09-09T17:26:16;20.10;99.90
30328;DHT22;17133;52.418;13.398;2022-09-09T17:28:43;19.90;99.90
30328;DHT22;17133;52.418;13.398;2022-09-09T17:31:12;19.90;99.90
30328;DHT22;17133;52.418;13.398;2022-09-09T17:33:40;19.80;99.90
30328;DHT22;17133;52.418;13.398;2022-09-09T17:36:09;19.70;99.90
30328;DHT22;17133;52.418;13.398;2022-09-09T17:38:36;19.70;99.90
30328;DHT22;17133;52.418;13.398;2022-09-09T17:41:08;19.60;99.90
30328;DHT22;17133;52.418;13.398;2022-09-09T17:43:35;19.50;99.90
30328;DHT22;17133;52.418;13.398;2022-09-09T17:46:08;19.40;99.90
30328;DHT22;17133;52.418;13.398;2022-09-09T17:48:34;19.40;99.90
30328;DHT22;17133;52.418;13.398;2022-09-09T17:51:07;19.30;99.90
30328;DHT22;17133;52.418;13.398;2022-09-09T17:53:37;19.20;99.90
30328;DHT22;17133;52.418;13.398;2022-09-09T17:56:05;19.10;99.90
30328;DHT22;17133;52.418;13.398;2022-09-09T17:58:31;19.10;99.90
30328;DHT22;17133;52.418;13.398;2022-09-09T18:01:02;18.90;99.90
30328;DHT22;17133;52.418;13.398;2022-09-09T18:03:29;18.90;99.90
30328;DHT22;17133;52.418;13.398;2022-09-09T18:06:00;18.80;99.90
30328;DHT22;17133;52.418;13.398;2022-09-09T18:08:26;18.70;99.90
30328;DHT22;17133;52.418;13.398;2022-09-09T18:10:53;18.70;99.90
30328;DHT22;17133;52.418;13.398;2022-09-09T18:13:20;18.70;99.90
30328;DHT22;17133;52.418;13.398;2022-09-09T18:15:46;18.50;99.90
30328;DHT22;17133;52.418;13.398;2022-09-09T18:18:11;18.50;99.90
30328;DHT22;17133;52.418;13.398;2022-09-09T18:20:38;18.40;99.90
30328;DHT22;17133;52.418;13.398;2022-09-09T18:23:05;18.40;99.90
30328;DHT22;17133;52.418;13.398;2022-09-09T18:25:30;18.30;99.90
30328;DHT22;17133;52.418;13.398;2022-09-09T18:27:56;18.20;99.90
30328;DHT22;17133;52.418;13.398;2022-09-09T18:30:23;18.20;99.90
30328;DHT22;17133;52.418;13.398;2022-09-09T18:32:49;18.10;99.90
30328;DHT22;17133;52.418;13.398;2022-09-09T18:35:17;18.10;99.90
30328;DHT22;17133;52.418;13.398;2022-09-09T18:45:00;18.00;99.90
30328;DHT22;17133;52.418;13.398;2022-09-09T18:47:26;17.90;99.90
30328;DHT22;17133;52.418;13.398;2022-09-09T18:49:52;17.90;99.90
30328;DHT22;17133;52.418;13.398;2022-09-09T18:52:17;18.00;99.90
30328;DHT22;17133;52.418;13.398;2022-09-09T18:54:43;17.80;99.90
30328;DHT22;17133;52.418;13.398;2022-09-09T18:57:11;18.00;99.90
30328;DHT22;17133;52.418;13.398;2022-09-09T19:02:02;17.90;99.90
30328;DHT22;17133;52.418;13.398;2022-09-09T19:04:29;17.80;99.90
30328;DHT22;17133;52.418;13.398;2022-09-09T19:06:56;17.80;99.90
30328;DHT22;17133;52.418;13.398;2022-09-09T19:09:26;17.70;99.90
30328;DHT22;17133;52.418;13.398;2022-09-09T19:11:52;17.70;99.90
30328;DHT22;17133;52.418;13.398;2022-09-09T19:14:18;17.60;99.90
30328;DHT22;17133;52.418;13.398;2022-09-09T19:16:44;17.50;99.90
30328;DHT22;17133;52.418;13.398;2022-09-09T19:19:15;17.40;99.90
30328;DHT22;17133;52.418;13.398;2022-09-09T19:21:41;17.30;99.90
30328;DHT22;17133;52.418;13.398;2022-09-09T19:26:43;17.20;99.90
30328;DHT22;17133;52.418;13.398;2022-09-09T19:29:17;17.20;99.90
30328;DHT22;17133;52.418;13.398;2022-09-09T19:31:44;17.20;99.90
30328;DHT22;17133;52.418;13.398;2022-09-09T19:34:11;17.10;99.90
30328;DHT22;17133;52.418;13.398;2022-09-09T19:36:37;17.00;99.90
30328;DHT22;17133;52.418;13.398;2022-09-09T19:39:04;17.00;99.90
30328;DHT22;17133;52.418;13.398;2022-09-09T19:41:30;17.00;99.90
30328;DHT22;17133;52.418;13.398;2022-09-09T19:43:58;17.00;99.90
30328;DHT22;17133;52.418;13.398;2022-09-09T19:46:28;16.90;99.90
30328;DHT22;17133;52.418;13.398;2022-09-09T19:48:55;16.90;99.90
30328;DHT22;17133;52.418;13.398;2022-09-09T19:51:22;16.90;99.90
30328;DHT22;17133;52.418;13.398;2022-09-09T19:54:03;16.90;99.90
30328;DHT22;17133;52.418;13.398;2022-09-09T19:56:30;16.90;99.90
30328;DHT22;17133;52.418;13.398;2022-09-09T19:58:57;16.80;99.90
30328;DHT22;17133;52.418;13.398;2022-09-09T20:01:28;16.80;99.90
30328;DHT22;17133;52.418;13.398;2022-09-09T20:03:56;16.80;99.90
30328;DHT22;17133;52.418;13.398;2022-09-09T20:06:24;16.70;99.90
30328;DHT22;17133;52.418;13.398;2022-09-09T20:08:54;16.70;99.90
30328;DHT22;17133;52.418;13.398;2022-09-09T20:11:20;16.70;99.90
30328;DHT22;17133;52.418;13.398;2022-09-09T20:13:47;16.70;99.90
30328;DHT22;17133;52.418;13.398;2022-09-09T20:16:17;16.60;99.90
30328;DHT22;17133;52.418;13.398;2022-09-09T20:18:46;16.60;99.90
30328;DHT22;17133;52.418;13.398;2022-09-09T20:21:14;16.60;99.90
30328;DHT22;17133;52.418;13.398;2022-09-09T20:23:41;16.50;99.90
30328;DHT22;17133;52.418;13.398;2022-09-09T20:26:10;16.50;99.90
30328;DHT22;17133;52.418;13.398;2022-09-09T20:28:38;16.50;99.90
30328;DHT22;17133;52.418;13.398;2022-09-09T20:31:05;16.50;99.90
30328;DHT22;17133;52.418;13.398;2022-09-09T20:33:32;16.40;99.90
30328;DHT22;17133;52.418;13.398;2022-09-09T20:35:58;16.40;99.90
30328;DHT22;17133;52.418;13.398;2022-09-09T20:38:30;16.40;99.90
30328;DHT22;17133;52.418;13.398;2022-09-09T20:41:04;16.40;99.90
30328;DHT22;17133;52.418;13.398;2022-09-09T20:43:29;16.30;99.90
30328;DHT22;17133;52.418;13.398;2022-09-09T20:45:55;16.30;99.90
30328;DHT22;17133;52.418;13.398;2022-09-09T20:48:23;16.30;99.90
30328;DHT22;17133;52.418;13.398;2022-09-09T20:50:49;16.20;99.90
30328;DHT22;17133;52.418;13.398;2022-09-09T20:53:14;16.20;99.90
30328;DHT22;17133;52.418;13.398;2022-09-09T20:55:40;16.20;99.90
30328;DHT22;17133;52.418;13.398;2022-09-09T20:58:06;16.20;99.90
30328;DHT22;17133;52.418;13.398;2022-09-09T21:00:31;16.10;99.90
30328;DHT22;17133;52.418;13.398;2022-09-09T21:02:57;16.10;99.90
30328;DHT22;17133;52.418;13.398;2022-09-09T21:05:24;16.00;99.90
30328;DHT22;17133;52.418;13.398;2022-09-09T21:07:50;16.00;99.90